Greenville, SC (29611)

7:50 PM EDT on September 30, 2014 (GMT -0400)
Augusta Rd / Riverside Dr Area | Change Station
CLOSE
Current Station
Personal Weather Station
Location: Greenville, SC
Elevation: 967 ft
Nearby Weather Stations

Elev 967 ft 34.81 °N, 82.38 °W | Updated 21 minutes ago

Clear
Clear
71.2 °F
Feels Like 73 °F
N
0.0
Wind Variable Wind from WNW
Gusts 0.0 mph

Today
High -- | Low -- °F
--% Chance of Precip.
Yesterday
High -- | Low -- °F
Precip. -- in
7:23 AM 7:15 PM
Waxing Crescent, 41% visible
Pressure 29.88 in
Visibility 10.0 miles
Clouds Clear
Heat Index 73 °F
Dew Point 62 °F
Humidity 74%
Rainfall 0.00 in
Snow Depth Not available.
UV 0 out of 12
Pollen 5.10 out of 12
Ozone Good
PM2.5 Good
Flu Activity Not available.
METAR KGMU 302253Z 17004KT 10SM CLR 26/15 A2990 RMK AO2 SLP117 T02560150

More Conditions Fewer Conditions

Pressure 29.88 in
Visibility 10.0 miles
Clouds Clear
Heat Index 73 °F
Dew Point 62 °F
Humidity 74%
Rainfall 0.00 in
Snow Depth Not available.
UV 0 out of 12
Pollen 5.10 out of 12
Ozone Good
PM2.5 Good
Flu Activity Not available.
METAR KGMU 302253Z 17004KT 10SM CLR 26/15 A2990 RMK AO2 SLP117 T02560150

More Conditions Fewer Conditions

10-Day Weather Forecast

Almanac

Astronomy

Sep. 30, 2014 Rise Set
Actual Time 7:23 AM EDT 7:15 PM EDT
Civil Twilight 6:58 AM EDT 7:40 PM EDT
Nautical Twilight 6:29 AM EDT 8:09 PM EDT
Astronomical Twilight 5:59 AM EDT 8:39 PM EDT
Moon 1:20 PM EDT 11:54 PM EDT
Length of Visible Light 12h 41m
Length of Day
11h 51m
Tomorrow will be 2m 9s shorter.
Waxing Crescent, 41% of the Moon is Illuminated
Today
Waxing Crescent
Oct 1
First Quarter
Oct 8
Full
Oct 15
Last Quarter
Oct 23
New

Today's Extremes

State Highs State Lows

Community

WunderPhotos

Upload Photos

1,757,785 photos uploaded!

Nearby

Air Quality

  Air Quality AQ Index Pollutant
Yesterday Good
OZONE
Yesterday Good
PM2.5
Current Good
OZONE
Current Good
PM2.5
Tuesday Good
OZONE

Snow Depth

Station Depth Elevation
No new snow has been reported.

Earthquake Activity

City Distance Mag. Time & Date
No recent earthquake activity has been reported nearby.
Minimum magnitude displayed is 2.5.

Coastal Water Temperatures

Place Temperature
No Stations Reporting

Nearby Weather Stations